sensor_id;sensor_type;location;lat;lon;timestamp;pressure;altitude;pressure_sealevel;temperature;humidity
75991;BME280;64673;52.276;10.560;2023-06-22T00:00:56;101066.00;;;17.85;92.70
75991;BME280;64673;52.276;10.560;2023-06-22T00:03:23;101064.00;;;17.77;92.98
75991;BME280;64673;52.276;10.560;2023-06-22T00:05:50;101066.44;;;17.65;92.50
75991;BME280;64673;52.276;10.560;2023-06-22T00:08:16;101069.22;;;17.60;92.58
75991;BME280;64673;52.276;10.560;2023-06-22T00:10:42;101068.03;;;17.66;92.01
75991;BME280;64673;52.276;10.560;2023-06-22T00:13:09;101068.84;;;17.66;92.87
75991;BME280;64673;52.276;10.560;2023-06-22T00:15:35;101064.47;;;17.51;92.79
75991;BME280;64673;52.276;10.560;2023-06-22T00:18:01;101071.03;;;17.50;93.17
75991;BME280;64673;52.276;10.560;2023-06-22T00:20:27;101069.03;;;17.83;91.65
75991;BME280;64673;52.276;10.560;2023-06-22T00:22:56;101075.50;;;17.87;91.98
75991;BME280;64673;52.276;10.560;2023-06-22T00:25:22;101079.94;;;17.83;92.20
75991;BME280;64673;52.276;10.560;2023-06-22T00:27:48;101066.00;;;17.71;92.98
75991;BME280;64673;52.276;10.560;2023-06-22T00:30:16;101083.19;;;17.85;90.64
75991;BME280;64673;52.276;10.560;2023-06-22T00:32:42;101083.22;;;18.44;86.42
75991;BME280;64673;52.276;10.560;2023-06-22T00:35:08;101084.25;;;18.70;85.39
75991;BME280;64673;52.276;10.560;2023-06-22T00:37:35;101087.19;;;18.38;87.41
75991;BME280;64673;52.276;10.560;2023-06-22T00:40:01;101088.63;;;17.99;89.33
75991;BME280;64673;52.276;10.560;2023-06-22T00:42:26;101102.50;;;17.89;89.42
75991;BME280;64673;52.276;10.560;2023-06-22T00:44:52;101096.53;;;17.73;89.87
75991;BME280;64673;52.276;10.560;2023-06-22T00:47:17;101101.28;;;17.68;90.29
75991;BME280;64673;52.276;10.560;2023-06-22T00:49:43;101091.44;;;17.53;91.75
75991;BME280;64673;52.276;10.560;2023-06-22T00:52:10;101090.16;;;17.37;91.40
75991;BME280;64673;52.276;10.560;2023-06-22T00:54:40;101095.06;;;17.21;92.81
75991;BME280;64673;52.276;10.560;2023-06-22T00:57:12;101102.03;;;17.27;92.12
75991;BME280;64673;52.276;10.560;2023-06-22T00:59:37;101090.81;;;17.15;92.75
75991;BME280;64673;52.276;10.560;2023-06-22T01:02:04;101094.84;;;17.17;93.65
75991;BME280;64673;52.276;10.560;2023-06-22T01:04:37;101091.44;;;17.39;92.90
75991;BME280;64673;52.276;10.560;2023-06-22T01:07:13;101082.38;;;17.44;92.33
75991;BME280;64673;52.276;10.560;2023-06-22T01:12:37;101090.56;;;17.85;88.97
75991;BME280;64673;52.276;10.560;2023-06-22T01:15:13;101073.97;;;17.54;90.22
75991;BME280;64673;52.276;10.560;2023-06-22T01:17:41;101065.59;;;17.37;90.24
75991;BME280;64673;52.276;10.560;2023-06-22T01:20:09;101054.75;;;17.04;92.96
75991;BME280;64673;52.276;10.560;2023-06-22T01:22:55;101054.38;;;17.11;92.77
75991;BME280;64673;52.276;10.560;2023-06-22T01:25:33;101052.66;;;17.15;91.39
75991;BME280;64673;52.276;10.560;2023-06-22T01:30:28;101058.72;;;17.39;90.01
75991;BME280;64673;52.276;10.560;2023-06-22T01:32:57;101054.28;;;17.16;91.35
75991;BME280;64673;52.276;10.560;2023-06-22T01:35:24;101065.97;;;17.03;91.63
75991;BME280;64673;52.276;10.560;2023-06-22T01:37:50;101059.47;;;16.99;92.31
75991;BME280;64673;52.276;10.560;2023-06-22T01:40:16;101055.03;;;16.89;92.19
75991;BME280;64673;52.276;10.560;2023-06-22T01:42:43;101044.53;;;16.96;93.63
75991;BME280;64673;52.276;10.560;2023-06-22T01:45:10;101040.13;;;17.00;92.46
75991;BME280;64673;52.276;10.560;2023-06-22T01:47:36;101033.28;;;17.30;90.35
75991;BME280;64673;52.276;10.560;2023-06-22T01:50:03;101034.50;;;17.24;90.07
75991;BME280;64673;52.276;10.560;2023-06-22T01:52:28;101044.34;;;16.93;91.88
75991;BME280;64673;52.276;10.560;2023-06-22T01:54:54;101044.66;;;16.91;92.59
75991;BME280;64673;52.276;10.560;2023-06-22T01:57:19;101052.31;;;16.89;91.88
75991;BME280;64673;52.276;10.560;2023-06-22T02:02:28;101055.56;;;17.18;91.02
75991;BME280;64673;52.276;10.560;2023-06-22T02:04:59;101049.94;;;17.15;90.75
75991;BME280;64673;52.276;10.560;2023-06-22T02:07:32;101056.63;;;17.64;87.32
75991;BME280;64673;52.276;10.560;2023-06-22T02:09:59;101051.03;;;17.96;84.78
75991;BME280;64673;52.276;10.560;2023-06-22T02:12:26;101036.56;;;17.96;84.40
75991;BME280;64673;52.276;10.560;2023-06-22T02:14:53;101037.53;;;17.64;86.79
75991;BME280;64673;52.276;10.560;2023-06-22T02:17:18;101032.47;;;17.30;88.57
75991;BME280;64673;52.276;10.560;2023-06-22T02:19:44;101035.09;;;17.21;88.54
75991;BME280;64673;52.276;10.560;2023-06-22T02:22:10;101035.31;;;17.25;88.15
75991;BME280;64673;52.276;10.560;2023-06-22T02:24:35;101039.31;;;17.27;88.69
75991;BME280;64673;52.276;10.560;2023-06-22T02:27:01;101046.78;;;16.94;89.82
75991;BME280;64673;52.276;10.560;2023-06-22T02:29:28;101048.13;;;16.78;90.35
75991;BME280;64673;52.276;10.560;2023-06-22T02:31:54;101041.00;;;16.82;90.21
75991;BME280;64673;52.276;10.560;2023-06-22T02:34:19;101039.47;;;16.57;91.70
75991;BME280;64673;52.276;10.560;2023-06-22T02:36:48;101037.50;;;16.44;92.77
75991;BME280;64673;52.276;10.560;2023-06-22T02:39:20;101045.47;;;16.22;94.07
75991;BME280;64673;52.276;10.560;2023-06-22T02:41:51;101053.34;;;16.23;94.74
75991;BME280;64673;52.276;10.560;2023-06-22T02:44:18;101055.25;;;16.23;94.20
75991;BME280;64673;52.276;10.560;2023-06-22T02:46:43;101059.69;;;16.19;94.46
75991;BME280;64673;52.276;10.560;2023-06-22T02:49:09;101050.84;;;16.27;94.79
75991;BME280;64673;52.276;10.560;2023-06-22T02:51:36;101054.38;;;16.27;94.88
75991;BME280;64673;52.276;10.560;2023-06-22T02:54:05;101054.00;;;16.34;93.09
75991;BME280;64673;52.276;10.560;2023-06-22T02:56:30;101053.00;;;16.30;93.70
75991;BME280;64673;52.276;10.560;2023-06-22T02:58:55;101069.38;;;16.25;93.71
75991;BME280;64673;52.276;10.560;2023-06-22T03:01:27;101082.63;;;16.31;93.94
75991;BME280;64673;52.276;10.560;2023-06-22T03:03:53;101082.47;;;16.60;92.45
75991;BME280;64673;52.276;10.560;2023-06-22T03:06:18;101082.00;;;16.53;92.96
75991;BME280;64673;52.276;10.560;2023-06-22T03:08:51;101082.50;;;16.41;93.31
75991;BME280;64673;52.276;10.560;2023-06-22T03:11:17;101097.63;;;16.47;92.19
75991;BME280;64673;52.276;10.560;2023-06-22T03:13:43;101098.59;;;16.38;93.13
75991;BME280;64673;52.276;10.560;2023-06-22T03:16:08;101100.88;;;16.31;93.61
75991;BME280;64673;52.276;10.560;2023-06-22T03:18:33;101107.88;;;16.37;93.73
75991;BME280;64673;52.276;10.560;2023-06-22T03:20:59;101106.47;;;16.39;93.50
75991;BME280;64673;52.276;10.560;2023-06-22T03:23:25;101106.97;;;16.23;93.98
75991;BME280;64673;52.276;10.560;2023-06-22T03:25:50;101103.59;;;16.31;94.75
75991;BME280;64673;52.276;10.560;2023-06-22T03:28:15;101107.88;;;16.37;94.71
75991;BME280;64673;52.276;10.560;2023-06-22T03:30:41;101107.72;;;16.47;94.85
75991;BME280;64673;52.276;10.560;2023-06-22T03:33:06;101104.53;;;16.59;93.48
75991;BME280;64673;52.276;10.560;2023-06-22T03:35:32;101110.84;;;16.54;94.38
75991;BME280;64673;52.276;10.560;2023-06-22T03:37:57;101120.06;;;16.58;93.34
75991;BME280;64673;52.276;10.560;2023-06-22T03:40:22;101118.84;;;16.69;93.09
75991;BME280;64673;52.276;10.560;2023-06-22T03:42:49;101126.31;;;16.77;92.48
75991;BME280;64673;52.276;10.560;2023-06-22T03:45:14;101121.00;;;16.86;92.00
75991;BME280;64673;52.276;10.560;2023-06-22T03:47:40;101123.00;;;16.80;93.71
75991;BME280;64673;52.276;10.560;2023-06-22T03:50:06;101117.97;;;16.88;94.21
75991;BME280;64673;52.276;10.560;2023-06-22T03:52:31;101124.28;;;17.02;93.66
75991;BME280;64673;52.276;10.560;2023-06-22T03:55:00;101124.34;;;17.15;93.24
75991;BME280;64673;52.276;10.560;2023-06-22T03:57:26;101125.16;;;17.16;93.17
75991;BME280;64673;52.276;10.560;2023-06-22T03:59:51;101116.00;;;17.07;94.73
75991;BME280;64673;52.276;10.560;2023-06-22T04:02:16;101127.34;;;17.14;95.04
75991;BME280;64673;52.276;10.560;2023-06-22T04:04:42;101119.28;;;17.23;93.94
75991;BME280;64673;52.276;10.560;2023-06-22T04:07:07;101130.22;;;17.36;93.53
75991;BME280;64673;52.276;10.560;2023-06-22T04:09:33;101117.91;;;17.52;92.26
75991;BME280;64673;52.276;10.560;2023-06-22T04:11:59;101113.66;;;17.60;92.51
75991;BME280;64673;52.276;10.560;2023-06-22T04:14:24;101107.34;;;17.65;93.92
75991;BME280;64673;52.276;10.560;2023-06-22T04:16:49;101102.19;;;17.77;91.13
75991;BME280;64673;52.276;10.560;2023-06-22T04:19:15;101102.38;;;17.94;87.93
75991;BME280;64673;52.276;10.560;2023-06-22T04:21:43;101094.25;;;18.16;85.57
75991;BME280;64673;52.276;10.560;2023-06-22T04:24:09;101088.53;;;18.26;83.81
75991;BME280;64673;52.276;10.560;2023-06-22T04:26:35;101089.94;;;18.38;83.35
75991;BME280;64673;52.276;10.560;2023-06-22T04:29:05;101085.88;;;18.35;82.04
75991;BME280;64673;52.276;10.560;2023-06-22T04:31:33;101084.38;;;18.43;81.66
75991;BME280;64673;52.276;10.560;2023-06-22T04:34:03;101091.50;;;18.52;82.44
75991;BME280;64673;52.276;10.560;2023-06-22T04:36:38;101096.78;;;18.49;83.97
75991;BME280;64673;52.276;10.560;2023-06-22T04:39:09;101087.03;;;18.56;83.00
75991;BME280;64673;52.276;10.560;2023-06-22T04:41:41;101087.81;;;18.57;82.17
75991;BME280;64673;52.276;10.560;2023-06-22T04:44:12;101092.72;;;18.60;82.23
75991;BME280;64673;52.276;10.560;2023-06-22T04:46:38;101077.06;;;18.74;82.09
75991;BME280;64673;52.276;10.560;2023-06-22T04:49:07;101082.91;;;18.81;81.82
75991;BME280;64673;52.276;10.560;2023-06-22T04:51:42;101082.69;;;18.78;83.31
75991;BME280;64673;52.276;10.560;2023-06-22T04:54:08;101084.50;;;18.82;82.55
75991;BME280;64673;52.276;10.560;2023-06-22T04:56:34;101087.78;;;18.93;83.43
75991;BME280;64673;52.276;10.560;2023-06-22T04:59:00;101090.53;;;18.93;83.36
75991;BME280;64673;52.276;10.560;2023-06-22T05:01:26;101097.97;;;19.01;82.77
75991;BME280;64673;52.276;10.560;2023-06-22T05:03:51;101099.13;;;19.09;81.18
75991;BME280;64673;52.276;10.560;2023-06-22T05:06:26;101093.25;;;19.24;80.46
75991;BME280;64673;52.276;10.560;2023-06-22T05:08:56;101095.72;;;19.34;78.78
75991;BME280;64673;52.276;10.560;2023-06-22T05:11:27;101094.94;;;19.42;79.09
75991;BME280;64673;52.276;10.560;2023-06-22T05:13:53;101091.91;;;19.44;78.42
75991;BME280;64673;52.276;10.560;2023-06-22T05:16:20;101091.47;;;19.50;79.67
75991;BME280;64673;52.276;10.560;2023-06-22T05:18:52;101086.84;;;19.59;78.22
75991;BME280;64673;52.276;10.560;2023-06-22T05:21:25;101089.78;;;19.71;77.69
75991;BME280;64673;52.276;10.560;2023-06-22T05:23:52;101088.84;;;19.85;76.73
75991;BME280;64673;52.276;10.560;2023-06-22T05:26:19;101088.03;;;19.84;77.49
75991;BME280;64673;52.276;10.560;2023-06-22T05:28:45;101083.06;;;19.95;75.43
75991;BME280;64673;52.276;10.560;2023-06-22T05:31:13;101088.53;;;19.95;75.33
75991;BME280;64673;52.276;10.560;2023-06-22T05:33:38;101084.50;;;19.92;75.66
75991;BME280;64673;52.276;10.560;2023-06-22T05:36:04;101084.84;;;19.99;75.81
75991;BME280;64673;52.276;10.560;2023-06-22T05:38:30;101081.13;;;20.04;74.81
75991;BME280;64673;52.276;10.560;2023-06-22T05:40:56;101090.84;;;20.10;75.77
75991;BME280;64673;52.276;10.560;2023-06-22T05:43:21;101072.97;;;20.30;74.79
75991;BME280;64673;52.276;10.560;2023-06-22T05:45:46;101073.31;;;20.37;74.03
75991;BME280;64673;52.276;10.560;2023-06-22T05:48:12;101072.78;;;20.26;72.83
75991;BME280;64673;52.276;10.560;2023-06-22T05:50:37;101068.00;;;20.40;74.19
75991;BME280;64673;52.276;10.560;2023-06-22T05:53:02;101070.56;;;20.45;73.66
75991;BME280;64673;52.276;10.560;2023-06-22T05:55:28;101065.06;;;20.63;71.90
75991;BME280;64673;52.276;10.560;2023-06-22T05:57:53;101067.97;;;20.75;71.21
75991;BME280;64673;52.276;10.560;2023-06-22T06:00:19;101061.16;;;20.81;72.61
75991;BME280;64673;52.276;10.560;2023-06-22T06:02:44;101064.69;;;20.90;72.14
75991;BME280;64673;52.276;10.560;2023-06-22T06:05:11;101065.94;;;21.01;72.47
75991;BME280;64673;52.276;10.560;2023-06-22T06:07:40;101069.34;;;21.07;72.78
75991;BME280;64673;52.276;10.560;2023-06-22T06:10:06;101068.81;;;21.13;72.10
75991;BME280;64673;52.276;10.560;2023-06-22T06:12:31;101066.44;;;21.03;72.02
75991;BME280;64673;52.276;10.560;2023-06-22T06:14:57;101061.78;;;20.95;72.96
75991;BME280;64673;52.276;10.560;2023-06-22T06:17:22;101062.41;;;21.01;72.71
75991;BME280;64673;52.276;10.560;2023-06-22T06:19:47;101063.38;;;21.05;72.49
75991;BME280;64673;52.276;10.560;2023-06-22T06:22:13;101067.28;;;20.95;72.50
75991;BME280;64673;52.276;10.560;2023-06-22T06:24:38;101063.50;;;21.08;72.05
75991;BME280;64673;52.276;10.560;2023-06-22T06:27:03;101067.25;;;21.04;72.90
75991;BME280;64673;52.276;10.560;2023-06-22T06:29:30;101062.53;;;21.22;71.94
75991;BME280;64673;52.276;10.560;2023-06-22T06:31:55;101058.00;;;21.17;71.94
75991;BME280;64673;52.276;10.560;2023-06-22T06:34:21;101058.66;;;21.23;71.74
75991;BME280;64673;52.276;10.560;2023-06-22T06:36:47;101063.28;;;21.31;71.70
75991;BME280;64673;52.276;10.560;2023-06-22T06:39:12;101063.28;;;21.31;70.74
75991;BME280;64673;52.276;10.560;2023-06-22T06:41:38;101061.66;;;21.38;71.91
75991;BME280;64673;52.276;10.560;2023-06-22T06:44:03;101060.38;;;21.36;71.75
75991;BME280;64673;52.276;10.560;2023-06-22T06:46:29;101057.63;;;21.36;72.16
75991;BME280;64673;52.276;10.560;2023-06-22T06:48:54;101060.38;;;21.36;70.98
75991;BME280;64673;52.276;10.560;2023-06-22T06:51:19;101063.88;;;21.45;70.67
75991;BME280;64673;52.276;10.560;2023-06-22T06:53:45;101064.97;;;21.52;70.75
75991;BME280;64673;52.276;10.560;2023-06-22T06:56:10;101066.16;;;21.43;72.01
75991;BME280;64673;52.276;10.560;2023-06-22T06:58:36;101068.63;;;21.65;70.81
75991;BME280;64673;52.276;10.560;2023-06-22T07:01:02;101066.03;;;21.69;71.53
75991;BME280;64673;52.276;10.560;2023-06-22T07:03:28;101064.69;;;21.75;70.71
75991;BME280;64673;52.276;10.560;2023-06-22T07:05:53;101068.19;;;21.84;71.37
75991;BME280;64673;52.276;10.560;2023-06-22T07:08:19;101073.06;;;21.78;71.15
75991;BME280;64673;52.276;10.560;2023-06-22T07:10:44;101064.41;;;21.68;70.38
75991;BME280;64673;52.276;10.560;2023-06-22T07:13:09;101063.81;;;21.83;71.53
75991;BME280;64673;52.276;10.560;2023-06-22T07:15:35;101059.38;;;21.99;71.64
75991;BME280;64673;52.276;10.560;2023-06-22T07:18:00;101067.94;;;21.98;71.13
75991;BME280;64673;52.276;10.560;2023-06-22T07:20:25;101066.50;;;22.00;70.57
75991;BME280;64673;52.276;10.560;2023-06-22T07:22:51;101068.78;;;22.19;70.86
75991;BME280;64673;52.276;10.560;2023-06-22T07:25:16;101061.31;;;22.40;70.72
75991;BME280;64673;52.276;10.560;2023-06-22T07:27:56;101070.16;;;22.67;69.69
75991;BME280;64673;52.276;10.560;2023-06-22T07:30:22;101063.47;;;22.55;68.87
75991;BME280;64673;52.276;10.560;2023-06-22T07:32:48;101057.97;;;22.68;69.08
75991;BME280;64673;52.276;10.560;2023-06-22T07:35:13;101060.38;;;22.78;70.04
75991;BME280;64673;52.276;10.560;2023-06-22T07:37:39;101054.09;;;22.69;69.17
75991;BME280;64673;52.276;10.560;2023-06-22T07:40:05;101042.53;;;22.63;68.72
75991;BME280;64673;52.276;10.560;2023-06-22T07:42:32;101056.81;;;22.89;67.79
75991;BME280;64673;52.276;10.560;2023-06-22T07:45:01;101048.25;;;23.03;68.02
75991;BME280;64673;52.276;10.560;2023-06-22T07:47:27;101049.41;;;23.02;68.50
75991;BME280;64673;52.276;10.560;2023-06-22T07:49:54;101056.00;;;22.89;67.63
75991;BME280;64673;52.276;10.560;2023-06-22T07:52:20;101054.00;;;23.22;68.28
75991;BME280;64673;52.276;10.560;2023-06-22T07:54:46;101043.44;;;23.00;67.93
75991;BME280;64673;52.276;10.560;2023-06-22T07:57:11;101035.69;;;23.26;67.78
75991;BME280;64673;52.276;10.560;2023-06-22T07:59:37;101053.47;;;23.29;68.00
75991;BME280;64673;52.276;10.560;2023-06-22T08:02:02;101041.66;;;23.41;66.89
75991;BME280;64673;52.276;10.560;2023-06-22T08:04:28;101042.03;;;23.51;65.29
75991;BME280;64673;52.276;10.560;2023-06-22T08:06:54;101043.50;;;23.61;65.70
75991;BME280;64673;52.276;10.560;2023-06-22T08:09:19;101039.94;;;23.60;66.37
75991;BME280;64673;52.276;10.560;2023-06-22T08:11:45;101039.81;;;23.57;66.31
75991;BME280;64673;52.276;10.560;2023-06-22T08:14:10;101034.91;;;23.62;66.88
75991;BME280;64673;52.276;10.560;2023-06-22T08:16:35;101036.13;;;23.77;66.68
75991;BME280;64673;52.276;10.560;2023-06-22T08:19:01;101043.16;;;23.62;65.37
75991;BME280;64673;52.276;10.560;2023-06-22T08:21:26;101040.50;;;23.66;66.78
75991;BME280;64673;52.276;10.560;2023-06-22T08:23:51;101052.78;;;23.56;66.04
75991;BME280;64673;52.276;10.560;2023-06-22T08:26:17;101048.31;;;23.64;67.16
75991;BME280;64673;52.276;10.560;2023-06-22T08:28:42;101049.22;;;23.68;66.57
75991;BME280;64673;52.276;10.560;2023-06-22T08:31:07;101054.03;;;23.83;65.95
75991;BME280;64673;52.276;10.560;2023-06-22T08:33:33;101048.16;;;23.85;65.53
75991;BME280;64673;52.276;10.560;2023-06-22T08:35:59;101049.53;;;24.03;65.24
75991;BME280;64673;52.276;10.560;2023-06-22T08:38:25;101049.78;;;23.86;67.32
75991;BME280;64673;52.276;10.560;2023-06-22T08:40:50;101048.84;;;23.94;67.76
75991;BME280;64673;52.276;10.560;2023-06-22T08:43:16;101052.38;;;23.94;65.85
75991;BME280;64673;52.276;10.560;2023-06-22T08:45:41;101058.38;;;23.84;68.14
75991;BME280;64673;52.276;10.560;2023-06-22T08:48:06;101055.28;;;23.86;66.69
75991;BME280;64673;52.276;10.560;2023-06-22T08:50:32;101053.97;;;24.07;65.74
75991;BME280;64673;52.276;10.560;2023-06-22T08:52:57;101040.19;;;24.07;65.59
75991;BME280;64673;52.276;10.560;2023-06-22T08:55:22;101044.91;;;24.07;66.15
75991;BME280;64673;52.276;10.560;2023-06-22T08:57:48;101037.84;;;24.34;65.35
75991;BME280;64673;52.276;10.560;2023-06-22T09:00:14;101037.03;;;24.61;64.13
75991;BME280;64673;52.276;10.560;2023-06-22T09:02:46;101041.22;;;24.71;64.68
75991;BME280;64673;52.276;10.560;2023-06-22T09:05:12;101040.81;;;24.85;64.70
75991;BME280;64673;52.276;10.560;2023-06-22T09:07:37;101033.63;;;24.52;65.87
75991;BME280;64673;52.276;10.560;2023-06-22T09:10:03;101040.06;;;24.56;65.36
75991;BME280;64673;52.276;10.560;2023-06-22T09:12:32;101039.19;;;24.84;64.17
75991;BME280;64673;52.276;10.560;2023-06-22T09:14:59;101040.53;;;24.74;64.09
75991;BME280;64673;52.276;10.560;2023-06-22T09:17:28;101033.13;;;24.62;63.97
75991;BME280;64673;52.276;10.560;2023-06-22T09:19:54;101022.81;;;24.75;64.71
75991;BME280;64673;52.276;10.560;2023-06-22T09:22:19;101019.75;;;25.08;64.53
75991;BME280;64673;52.276;10.560;2023-06-22T09:24:45;101013.25;;;25.16;63.24
75991;BME280;64673;52.276;10.560;2023-06-22T09:27:10;101008.97;;;25.34;64.91
75991;BME280;64673;52.276;10.560;2023-06-22T09:29:35;101002.41;;;25.58;64.68
75991;BME280;64673;52.276;10.560;2023-06-22T09:32:01;100996.66;;;25.47;62.84
75991;BME280;64673;52.276;10.560;2023-06-22T09:34:26;100998.41;;;25.71;64.41
75991;BME280;64673;52.276;10.560;2023-06-22T09:36:52;100992.34;;;25.66;62.55
75991;BME280;64673;52.276;10.560;2023-06-22T09:39:18;100978.78;;;25.76;64.00
75991;BME280;64673;52.276;10.560;2023-06-22T09:41:44;100979.97;;;25.95;60.54
75991;BME280;64673;52.276;10.560;2023-06-22T09:44:09;100978.28;;;26.09;61.38
75991;BME280;64673;52.276;10.560;2023-06-22T09:46:34;100972.63;;;25.83;61.60
75991;BME280;64673;52.276;10.560;2023-06-22T09:49:00;100970.06;;;25.94;63.02
75991;BME280;64673;52.276;10.560;2023-06-22T09:51:25;100974.22;;;26.03;61.73
75991;BME280;64673;52.276;10.560;2023-06-22T09:53:51;100978.00;;;25.95;61.86
75991;BME280;64673;52.276;10.560;2023-06-22T09:56:17;100972.41;;;25.92;61.14
75991;BME280;64673;52.276;10.560;2023-06-22T09:58:43;100973.28;;;26.15;61.25
75991;BME280;64673;52.276;10.560;2023-06-22T10:01:09;100976.41;;;26.33;59.67
75991;BME280;64673;52.276;10.560;2023-06-22T10:03:35;100975.66;;;25.97;59.78
75991;BME280;64673;52.276;10.560;2023-06-22T10:06:01;100982.19;;;26.08;61.03
75991;BME280;64673;52.276;10.560;2023-06-22T10:08:26;100975.81;;;26.23;59.99
75991;BME280;64673;52.276;10.560;2023-06-22T10:10:52;100975.47;;;26.67;62.15
75991;BME280;64673;52.276;10.560;2023-06-22T10:13:17;100971.19;;;26.50;61.15
75991;BME280;64673;52.276;10.560;2023-06-22T10:15:44;100967.94;;;26.45;58.74
75991;BME280;64673;52.276;10.560;2023-06-22T10:18:15;100964.00;;;26.46;57.42
75991;BME280;64673;52.276;10.560;2023-06-22T10:20:40;100957.72;;;26.49;58.93
75991;BME280;64673;52.276;10.560;2023-06-22T10:23:05;100971.72;;;26.56;58.13
75991;BME280;64673;52.276;10.560;2023-06-22T10:25:31;100961.63;;;26.67;58.48
75991;BME280;64673;52.276;10.560;2023-06-22T10:27:56;100961.19;;;26.65;58.39
75991;BME280;64673;52.276;10.560;2023-06-22T10:30:22;100963.72;;;26.74;58.05
75991;BME280;64673;52.276;10.560;2023-06-22T10:32:48;100969.94;;;26.67;59.28
75991;BME280;64673;52.276;10.560;2023-06-22T10:35:13;100964.13;;;26.53;59.37
75991;BME280;64673;52.276;10.560;2023-06-22T10:37:44;100967.31;;;26.32;60.71
75991;BME280;64673;52.276;10.560;2023-06-22T10:40:12;100961.38;;;26.53;59.48
75991;BME280;64673;52.276;10.560;2023-06-22T10:42:38;100972.19;;;26.61;59.44
75991;BME280;64673;52.276;10.560;2023-06-22T10:45:03;100968.41;;;26.70;59.23
75991;BME280;64673;52.276;10.560;2023-06-22T10:47:29;100959.78;;;26.75;59.34
75991;BME280;64673;52.276;10.560;2023-06-22T10:49:54;100957.63;;;26.87;60.00
75991;BME280;64673;52.276;10.560;2023-06-22T10:52:19;100955.44;;;26.96;60.02
75991;BME280;64673;52.276;10.560;2023-06-22T10:54:45;100952.63;;;27.19;59.50
75991;BME280;64673;52.276;10.560;2023-06-22T10:57:10;100949.03;;;27.72;57.39
75991;BME280;64673;52.276;10.560;2023-06-22T10:59:35;100940.91;;;27.86;56.97
75991;BME280;64673;52.276;10.560;2023-06-22T11:02:01;100936.31;;;27.97;56.19
75991;BME280;64673;52.276;10.560;2023-06-22T11:04:27;100926.63;;;27.84;53.60
75991;BME280;64673;52.276;10.560;2023-06-22T11:06:52;100931.41;;;27.87;55.18
75991;BME280;64673;52.276;10.560;2023-06-22T11:09:18;100928.91;;;27.78;56.36
75991;BME280;64673;52.276;10.560;2023-06-22T11:11:49;100928.78;;;27.67;53.97
75991;BME280;64673;52.276;10.560;2023-06-22T11:14:15;100924.03;;;27.68;54.52
75991;BME280;64673;52.276;10.560;2023-06-22T11:16:41;100930.44;;;27.72;54.98
75991;BME280;64673;52.276;10.560;2023-06-22T11:19:06;100921.75;;;27.74;53.53
75991;BME280;64673;52.276;10.560;2023-06-22T11:21:32;100923.78;;;27.50;56.64
75991;BME280;64673;52.276;10.560;2023-06-22T11:23:58;100923.75;;;27.77;53.31
75991;BME280;64673;52.276;10.560;2023-06-22T11:26:24;100920.47;;;27.67;53.86
75991;BME280;64673;52.276;10.560;2023-06-22T11:28:49;100912.63;;;28.07;53.90
75991;BME280;64673;52.276;10.560;2023-06-22T11:31:14;100902.09;;;28.19;53.31
75991;BME280;64673;52.276;10.560;2023-06-22T11:33:40;100904.47;;;27.87;52.02
75991;BME280;64673;52.276;10.560;2023-06-22T11:36:05;100892.22;;;28.22;52.86
75991;BME280;64673;52.276;10.560;2023-06-22T11:38:30;100887.47;;;28.22;52.89
75991;BME280;64673;52.276;10.560;2023-06-22T11:40:58;100890.59;;;28.17;52.32
75991;BME280;64673;52.276;10.560;2023-06-22T11:43:23;100892.44;;;27.73;52.64
75991;BME280;64673;52.276;10.560;2023-06-22T11:45:49;100878.59;;;28.10;51.80
75991;BME280;64673;52.276;10.560;2023-06-22T11:48:15;100874.34;;;28.60;53.43
75991;BME280;64673;52.276;10.560;2023-06-22T11:50:41;100865.13;;;29.00;53.23
75991;BME280;64673;52.276;10.560;2023-06-22T11:53:06;100850.13;;;28.57;50.22
75991;BME280;64673;52.276;10.560;2023-06-22T11:55:31;100847.94;;;28.80;50.05
75991;BME280;64673;52.276;10.560;2023-06-22T11:57:57;100854.50;;;29.16;50.49
75991;BME280;64673;52.276;10.560;2023-06-22T12:00:25;100850.16;;;29.19;50.12
75991;BME280;64673;52.276;10.560;2023-06-22T12:02:51;100851.00;;;29.23;50.23
75991;BME280;64673;52.276;10.560;2023-06-22T12:05:19;100839.06;;;29.19;49.36
75991;BME280;64673;52.276;10.560;2023-06-22T12:07:45;100834.25;;;29.16;50.50
75991;BME280;64673;52.276;10.560;2023-06-22T12:10:11;100839.06;;;29.22;49.69
75991;BME280;64673;52.276;10.560;2023-06-22T12:12:36;100823.53;;;29.10;48.88
75991;BME280;64673;52.276;10.560;2023-06-22T12:15:02;100822.03;;;28.65;50.01
75991;BME280;64673;52.276;10.560;2023-06-22T12:17:31;100815.50;;;28.40;49.57
75991;BME280;64673;52.276;10.560;2023-06-22T12:19:58;100819.63;;;28.64;50.63
75991;BME280;64673;52.276;10.560;2023-06-22T12:22:23;100813.50;;;28.88;50.18
75991;BME280;64673;52.276;10.560;2023-06-22T12:24:48;100809.69;;;29.21;50.19
75991;BME280;64673;52.276;10.560;2023-06-22T12:27:15;100807.97;;;28.95;49.41
75991;BME280;64673;52.276;10.560;2023-06-22T12:29:41;100802.34;;;28.81;49.08
75991;BME280;64673;52.276;10.560;2023-06-22T12:32:07;100807.91;;;28.81;50.27
75991;BME280;64673;52.276;10.560;2023-06-22T12:34:32;100803.97;;;28.89;51.05
75991;BME280;64673;52.276;10.560;2023-06-22T12:36:58;100802.53;;;29.17;51.21
75991;BME280;64673;52.276;10.560;2023-06-22T12:39:23;100795.50;;;29.37;48.70
75991;BME280;64673;52.276;10.560;2023-06-22T12:41:48;100788.78;;;29.41;48.82
75991;BME280;64673;52.276;10.560;2023-06-22T12:44:14;100792.34;;;29.38;47.89